Time;durP1;ratioP1;P1;durP2;ratioP2;P2;SDS_P1;SDS_P2;PMS_P1;PMS_P2;Temp;Humidity;BMP_temperature;BMP_pressure;BME280_temperature;BME280_humidity;BME280_pressure;Samples;Min_cycle;Max_cycle;Signal;HPM_P1;HPM_P2
2022/10/09 00:02:18;;;;;;;7.70;3.70;;;;;;;;;;5025646;28;20033;-75
2022/10/09 00:04:43;;;;;;;8.02;4.07;;;;;;;;;;5026129;28;20314;-76
2022/10/09 00:07:09;;;;;;;9.82;3.63;;;;;;;;;;5022466;28;20554;-76
2022/10/09 00:09:34;;;;;;;7.05;3.15;;;;;;;;;;5049502;28;20020;-76
2022/10/09 00:11:59;;;;;;;7.20;3.78;;;;;;;;;;5006296;28;20160;-75
2022/10/09 00:14:24;;;;;;;6.75;3.53;;;;;;;;;;5036806;28;20820;-76
2022/10/09 00:16:50;;;;;;;17.80;4.65;;;;;;;;;;5055360;28;20849;-76
2022/10/09 00:19:15;;;;;;;7.40;3.63;;;;;;;;;;5032325;28;20060;-76
2022/10/09 00:21:40;;;;;;;8.48;3.22;;;;;;;;;;5035210;28;20051;-75
2022/10/09 00:24:05;;;;;;;8.32;3.45;;;;;;;;;;5035360;28;20071;-75
2022/10/09 00:26:31;;;;;;;13.32;3.67;;;;;;;;;;5047232;28;20295;-76
2022/10/09 00:28:56;;;;;;;10.00;4.53;;;;;;;;;;5022490;28;20051;-75
2022/10/09 00:31:22;;;;;;;7.00;3.30;;;;;;;;;;5048908;28;20065;-75
2022/10/09 00:33:47;;;;;;;8.95;4.72;;;;;;;;;;5022247;28;20024;-75
2022/10/09 00:36:14;;;;;;;10.15;5.10;;;;;;;;;;5029487;28;20105;-75
2022/10/09 00:38:40;;;;;;;7.90;4.50;;;;;;;;;;5028686;28;20044;-75
2022/10/09 00:41:06;;;;;;;8.18;4.82;;;;;;;;;;5034529;28;20050;-74
2022/10/09 00:43:40;;;;;;;13.43;4.35;;;;;;;;;;5025267;28;20796;-74
2022/10/09 00:46:05;;;;;;;;;;;;;;;;;;5019551;28;20231;-74
2022/10/09 00:48:31;;;;;;;12.80;4.50;;;;;;;;;;5052293;28;20223;-74
2022/10/09 00:50:57;;;;;;;11.05;4.78;;;;;;;;;;5041449;28;20941;-74
2022/10/09 00:53:23;;;;;;;9.93;4.93;;;;;;;;;;5032195;28;20098;-74
2022/10/09 00:55:49;;;;;;;10.52;4.95;;;;;;;;;;5029089;28;20089;-74
2022/10/09 00:58:14;;;;;;;12.25;5.38;;;;;;;;;;5026720;28;20025;-74
2022/10/09 01:00:40;;;;;;;14.57;5.45;;;;;;;;;;5025793;28;20082;-74
2022/10/09 01:03:05;;;;;;;12.40;5.40;;;;;;;;;;5043629;28;20802;-74
2022/10/09 01:05:33;;;;;;;11.57;6.07;;;;;;;;;;5025058;28;20047;-74
2022/10/09 01:08:09;;;;;;;10.18;7.18;;;;;;;;;;5012837;28;20027;-74
2022/10/09 01:10:58;;;;;;;10.73;5.20;;;;;;;;;;5024786;28;20029;-74
2022/10/09 01:13:41;;;;;;;9.35;6.72;;;;;;;;;;5026231;28;20082;-74
2022/10/09 01:16:27;;;;;;;11.57;7.15;;;;;;;;;;5047304;28;20081;-74
2022/10/09 01:18:58;;;;;;;12.52;6.45;;;;;;;;;;5041412;28;20090;-74
2022/10/09 01:21:39;;;;;;;19.20;8.15;;;;;;;;;;5062974;28;20043;-75
2022/10/09 01:24:13;;;;;;;14.15;8.80;;;;;;;;;;5028364;28;20466;-75
2022/10/09 01:26:50;;;;;;;12.27;7.13;;;;;;;;;;5018895;28;20891;-75
2022/10/09 01:29:17;;;;;;;11.30;6.78;;;;;;;;;;5054131;28;20546;-75
2022/10/09 01:31:45;;;;;;;17.58;8.50;;;;;;;;;;5026860;28;20020;-75
2022/10/09 01:34:12;;;;;;;13.77;8.52;;;;;;;;;;5061558;28;20031;-75
2022/10/09 01:36:38;;;;;;;15.60;9.70;;;;;;;;;;5023954;28;20143;-76
2022/10/09 01:39:04;;;;;;;16.25;8.65;;;;;;;;;;5027463;28;20020;-76
2022/10/09 01:41:30;;;;;;;13.10;9.30;;;;;;;;;;5024274;28;20012;-76
2022/10/09 01:43:55;;;;;;;15.07;10.98;;;;;;;;;;5023032;28;20816;-74
2022/10/09 01:46:26;;;;;;;15.60;9.25;;;;;;;;;;5024231;28;20056;-73
2022/10/09 01:49:11;;;;;;;16.88;10.23;;;;;;;;;;5040158;28;20158;-73
2022/10/09 01:51:46;;;;;;;19.77;12.27;;;;;;;;;;5022241;28;20040;-73
2022/10/09 01:54:13;;;;;;;23.77;12.30;;;;;;;;;;5021455;28;20558;-73
2022/10/09 01:56:40;;;;;;;25.63;12.32;;;;;;;;;;5036544;28;20020;-73
2022/10/09 01:59:11;;;;;;;19.02;13.07;;;;;;;;;;5026136;28;20017;-73
2022/10/09 02:01:38;;;;;;;22.10;12.43;;;;;;;;;;5035947;28;20820;-73
2022/10/09 02:04:05;;;;;;;21.85;14.75;;;;;;;;;;5043751;28;20029;-73
2022/10/09 02:06:31;;;;;;;23.80;14.00;;;;;;;;;;5011065;28;20261;-74
2022/10/09 02:08:57;;;;;;;19.73;11.90;;;;;;;;;;5022971;28;20123;-74
2022/10/09 02:11:24;;;;;;;18.65;12.52;;;;;;;;;;5008560;28;20025;-73
2022/10/09 02:13:51;;;;;;;17.63;12.60;;;;;;;;;;5019465;28;20046;-73
2022/10/09 02:16:26;;;;;;;24.08;14.30;;;;;;;;;;5012143;28;20037;-73
2022/10/09 02:19:03;;;;;;;18.60;13.02;;;;;;;;;;5037893;28;20036;-73
2022/10/09 02:21:30;;;;;;;19.27;12.63;;;;;;;;;;5044591;28;20983;-73
2022/10/09 02:23:56;;;;;;;21.63;13.32;;;;;;;;;;5025458;28;20028;-73
2022/10/09 02:26:22;;;;;;;17.25;12.98;;;;;;;;;;5044650;28;20123;-73
2022/10/09 02:28:47;;;;;;;25.33;15.02;;;;;;;;;;5043998;28;20479;-73
2022/10/09 02:31:18;;;;;;;24.92;13.98;;;;;;;;;;5039225;28;20055;-75
2022/10/09 02:33:44;;;;;;;18.17;13.32;;;;;;;;;;5027373;28;20800;-76
2022/10/09 02:36:09;;;;;;;22.05;15.88;;;;;;;;;;5024931;28;20028;-76
2022/10/09 02:38:34;;;;;;;28.38;16.45;;;;;;;;;;5022787;28;20841;-76
2022/10/09 02:41:00;;;;;;;22.10;15.48;;;;;;;;;;5035696;28;20530;-75
2022/10/09 02:43:26;;;;;;;25.25;16.35;;;;;;;;;;5022334;28;20028;-75
2022/10/09 02:45:51;;;;;;;22.17;17.00;;;;;;;;;;5022377;28;20143;-75
2022/10/09 02:48:16;;;;;;;25.65;15.02;;;;;;;;;;5016320;28;20033;-78
2022/10/09 02:50:41;;;;;;;21.50;15.18;;;;;;;;;;5034713;28;20500;-74
2022/10/09 02:53:06;;;;;;;20.75;14.93;;;;;;;;;;5011717;28;20072;-74
2022/10/09 02:55:32;;;;;;;24.75;14.73;;;;;;;;;;5005518;28;20017;-75
2022/10/09 02:57:57;;;;;;;25.30;16.75;;;;;;;;;;5023440;28;20074;-74
2022/10/09 03:00:22;;;;;;;21.30;16.23;;;;;;;;;;5024017;28;20089;-74
2022/10/09 03:02:47;;;;;;;26.98;16.00;;;;;;;;;;5058326;28;20028;-76
2022/10/09 03:05:13;;;;;;;23.33;16.48;;;;;;;;;;5013552;28;20753;-76
2022/10/09 03:07:38;;;;;;;25.88;15.43;;;;;;;;;;5046033;28;20021;-76
2022/10/09 03:10:03;;;;;;;23.17;15.18;;;;;;;;;;5041403;28;21020;-76
2022/10/09 03:12:28;;;;;;;19.83;15.23;;;;;;;;;;5023484;28;20070;-74
2022/10/09 03:14:54;;;;;;;22.30;15.77;;;;;;;;;;5023253;28;20035;-76
2022/10/09 03:17:19;;;;;;;30.75;16.00;;;;;;;;;;5039265;28;20867;-74
2022/10/09 03:19:44;;;;;;;21.58;14.82;;;;;;;;;;5022663;28;20135;-74
2022/10/09 03:22:09;;;;;;;27.67;14.82;;;;;;;;;;5022297;28;20055;-77
2022/10/09 03:24:35;;;;;;;18.15;12.75;;;;;;;;;;5040263;28;20874;-75
2022/10/09 03:27:00;;;;;;;17.17;12.82;;;;;;;;;;5023441;28;20039;-74
2022/10/09 03:29:25;;;;;;;23.77;14.55;;;;;;;;;;5021569;28;20020;-74
2022/10/09 03:31:50;;;;;;;16.77;12.85;;;;;;;;;;5022259;28;20628;-74
2022/10/09 03:34:16;;;;;;;20.38;13.63;;;;;;;;;;5022715;28;20850;-74
2022/10/09 03:36:41;;;;;;;17.35;13.18;;;;;;;;;;5020779;28;20028;-74
2022/10/09 03:39:07;;;;;;;19.83;11.68;;;;;;;;;;5021984;28;20028;-77
2022/10/09 03:41:32;;;;;;;15.93;11.57;;;;;;;;;;5022002;28;20028;-73
2022/10/09 03:43:57;;;;;;;20.02;11.93;;;;;;;;;;5019831;28;20076;-74
2022/10/09 03:46:22;;;;;;;15.30;10.43;;;;;;;;;;5039682;28;20032;-75
2022/10/09 03:48:47;;;;;;;17.95;11.63;;;;;;;;;;5029248;28;20020;-75
2022/10/09 03:51:13;;;;;;;17.67;10.68;;;;;;;;;;5022300;28;20029;-75
2022/10/09 03:53:38;;;;;;;16.67;11.05;;;;;;;;;;5038936;28;20016;-75
2022/10/09 03:56:03;;;;;;;19.05;10.63;;;;;;;;;;5020152;28;20036;-74
2022/10/09 03:58:28;;;;;;;13.93;9.73;;;;;;;;;;5062311;28;20036;-75
2022/10/09 04:00:54;;;;;;;15.48;10.88;;;;;;;;;;5041575;28;20426;-75
2022/10/09 04:03:19;;;;;;;16.05;10.32;;;;;;;;;;5019175;28;20031;-74
2022/10/09 04:05:45;;;;;;;14.43;10.00;;;;;;;;;;5020160;28;20064;-75
2022/10/09 04:08:10;;;;;;;17.00;10.15;;;;;;;;;;5019679;28;20878;-73
2022/10/09 04:10:35;;;;;;;13.50;10.57;;;;;;;;;;5039057;28;20849;-75
2022/10/09 04:13:01;;;;;;;14.02;8.88;;;;;;;;;;5010704;28;20128;-75
2022/10/09 04:15:26;;;;;;;12.38;9.20;;;;;;;;;;5040437;28;20079;-73
2022/10/09 04:17:51;;;;;;;14.18;9.30;;;;;;;;;;5041085;28;20089;-74
2022/10/09 04:20:17;;;;;;;16.08;9.88;;;;;;;;;;5024457;28;20028;-74
2022/10/09 04:22:42;;;;;;;15.02;9.43;;;;;;;;;;5023280;28;20016;-74
2022/10/09 04:25:08;;;;;;;18.48;9.63;;;;;;;;;;5026570;28;20017;-74
2022/10/09 04:27:33;;;;;;;12.60;9.57;;;;;;;;;;5025848;28;20111;-75
2022/10/09 04:29:58;;;;;;;21.35;9.85;;;;;;;;;;5032861;28;20016;-74
2022/10/09 04:32:23;;;;;;;12.77;8.45;;;;;;;;;;5043197;28;20438;-75
2022/10/09 04:34:49;;;;;;;16.90;9.05;;;;;;;;;;5025027;28;20028;-75
2022/10/09 04:37:14;;;;;;;12.02;8.20;;;;;;;;;;5037648;28;20877;-75
2022/10/09 04:39:39;;;;;;;14.27;8.82;;;;;;;;;;5028151;28;20889;-75
2022/10/09 04:42:05;;;;;;;13.10;9.43;;;;;;;;;;5036505;28;20030;-75
2022/10/09 04:44:30;;;;;;;13.23;8.18;;;;;;;;;;5027189;28;20017;-74
2022/10/09 04:46:55;;;;;;;14.10;8.25;;;;;;;;;;5026693;28;20809;-74
2022/10/09 04:49:21;;;;;;;15.57;9.05;;;;;;;;;;5043712;28;20062;-75
2022/10/09 04:51:46;;;;;;;13.38;9.07;;;;;;;;;;5042808;28;20139;-75
2022/10/09 04:54:11;;;;;;;14.65;9.55;;;;;;;;;;5025001;28;20020;-75
2022/10/09 04:56:37;;;;;;;13.27;9.05;;;;;;;;;;5020928;28;20077;-75
2022/10/09 04:59:02;;;;;;;8.75;7.35;;;;;;;;;;5024678;28;20887;-74
2022/10/09 05:01:28;;;;;;;14.10;7.72;;;;;;;;;;5026236;28;20917;-75
2022/10/09 05:03:53;;;;;;;11.60;8.13;;;;;;;;;;5025822;28;20019;-77
2022/10/09 05:06:20;;;;;;;15.75;8.38;;;;;;;;;;5055524;28;20032;-77
2022/10/09 05:08:45;;;;;;;11.25;7.50;;;;;;;;;;5043903;28;20888;-75
2022/10/09 05:11:12;;;;;;;13.00;7.80;;;;;;;;;;5024568;28;20024;-75
2022/10/09 05:13:39;;;;;;;9.63;7.82;;;;;;;;;;5043614;28;20089;-75
2022/10/09 05:16:06;;;;;;;12.90;8.18;;;;;;;;;;5023811;28;20022;-76
2022/10/09 05:18:31;;;;;;;12.05;7.68;;;;;;;;;;5025484;28;20020;-75
2022/10/09 05:20:56;;;;;;;11.45;7.30;;;;;;;;;;5044183;28;20032;-74
2022/10/09 05:23:22;;;;;;;10.45;7.05;;;;;;;;;;5025077;28;20452;-75
2022/10/09 05:25:54;;;;;;;11.98;6.30;;;;;;;;;;5033811;28;20020;-75
2022/10/09 05:28:19;;;;;;;11.88;7.70;;;;;;;;;;5043393;28;20017;-75
2022/10/09 05:30:44;;;;;;;13.27;7.07;;;;;;;;;;5024315;28;20082;-75
2022/10/09 05:33:09;;;;;;;8.13;6.15;;;;;;;;;;5041636;28;20124;-75
2022/10/09 05:35:34;;;;;;;8.52;5.32;;;;;;;;;;5021209;28;20798;-75
2022/10/09 05:38:00;;;;;;;9.23;6.47;;;;;;;;;;5037357;28;20848;-75
2022/10/09 05:40:25;;;;;;;14.68;6.78;;;;;;;;;;5020755;28;20896;-76
2022/10/09 05:42:50;;;;;;;14.55;6.18;;;;;;;;;;5011492;28;20088;-76
2022/10/09 05:45:15;;;;;;;12.80;6.93;;;;;;;;;;5021823;28;20036;-75
2022/10/09 05:47:41;;;;;;;8.05;5.85;;;;;;;;;;5016467;28;20059;-73
2022/10/09 05:50:06;;;;;;;11.95;6.63;;;;;;;;;;5015718;28;20024;-74
2022/10/09 05:52:33;;;;;;;6.63;5.40;;;;;;;;;;5020393;28;21066;-75
2022/10/09 05:54:59;;;;;;;14.70;6.07;;;;;;;;;;5021453;28;20012;-75
2022/10/09 05:57:25;;;;;;;7.80;5.28;;;;;;;;;;5025340;28;20184;-75
2022/10/09 05:59:50;;;;;;;7.97;5.45;;;;;;;;;;5038793;28;20020;-74
2022/10/09 06:02:15;;;;;;;10.45;6.05;;;;;;;;;;5022688;28;20964;-75
2022/10/09 06:04:40;;;;;;;12.87;6.03;;;;;;;;;;5016619;28;20037;-74
2022/10/09 06:07:05;;;;;;;13.18;5.53;;;;;;;;;;5013334;28;21071;-74
2022/10/09 06:09:31;;;;;;;17.42;6.25;;;;;;;;;;5016334;28;20017;-75
2022/10/09 06:11:56;;;;;;;10.43;5.50;;;;;;;;;;5013075;28;20195;-75
2022/10/09 06:14:21;;;;;;;11.55;5.32;;;;;;;;;;5014127;28;20136;-75
2022/10/09 06:16:47;;;;;;;6.60;5.00;;;;;;;;;;5011804;28;20024;-75
2022/10/09 06:19:14;;;;;;;9.05;4.65;;;;;;;;;;5011800;28;20023;-75
2022/10/09 06:21:39;;;;;;;10.65;5.18;;;;;;;;;;5012414;28;20016;-75
2022/10/09 06:24:05;;;;;;;11.93;5.93;;;;;;;;;;5013714;28;20133;-75
2022/10/09 06:26:31;;;;;;;7.97;5.20;;;;;;;;;;5012397;28;20798;-75
2022/10/09 06:28:57;;;;;;;8.55;4.95;;;;;;;;;;5015510;28;20070;-75
2022/10/09 06:31:25;;;;;;;8.50;4.93;;;;;;;;;;5020103;28;20908;-74
2022/10/09 06:33:51;;;;;;;10.38;5.65;;;;;;;;;;5040960;28;20028;-75
2022/10/09 06:36:18;;;;;;;12.45;5.85;;;;;;;;;;5017685;28;20136;-75
2022/10/09 06:38:43;;;;;;;13.00;5.18;;;;;;;;;;5020957;28;20023;-75
2022/10/09 06:41:10;;;;;;;9.35;5.72;;;;;;;;;;5039148;28;20020;-75
2022/10/09 06:43:35;;;;;;;8.35;5.63;;;;;;;;;;5019275;28;20021;-75
2022/10/09 06:46:05;;;;;;;8.88;4.57;;;;;;;;;;5013318;28;20131;-75
2022/10/09 06:48:31;;;;;;;9.77;4.80;;;;;;;;;;5015978;28;20021;-75
2022/10/09 06:51:04;;;;;;;10.13;5.15;;;;;;;;;;5018316;28;20075;-73
2022/10/09 06:53:29;;;;;;;8.85;5.05;;;;;;;;;;5011217;28;20875;-71
2022/10/09 06:55:56;;;;;;;13.52;5.18;;;;;;;;;;5030469;28;20027;-69
2022/10/09 06:58:21;;;;;;;7.13;4.53;;;;;;;;;;5030895;28;20016;-71
2022/10/09 07:00:46;;;;;;;7.95;5.15;;;;;;;;;;5032314;28;20346;-74
2022/10/09 07:03:12;;;;;;;11.68;5.78;;;;;;;;;;5014540;28;20024;-75
2022/10/09 07:05:37;;;;;;;9.55;5.03;;;;;;;;;;5014248;28;20840;-74
2022/10/09 07:08:02;;;;;;;13.00;5.70;;;;;;;;;;5003521;28;20024;-73
2022/10/09 07:10:27;;;;;;;9.95;6.10;;;;;;;;;;5015929;28;20082;-75
2022/10/09 07:12:53;;;;;;;10.98;6.40;;;;;;;;;;5002225;28;20090;-74
2022/10/09 07:15:18;;;;;;;11.43;6.15;;;;;;;;;;5038627;28;20898;-74
2022/10/09 07:17:43;;;;;;;11.93;5.88;;;;;;;;;;5011740;28;20206;-75
2022/10/09 07:20:08;;;;;;;13.02;5.85;;;;;;;;;;5014622;28;20075;-74
2022/10/09 07:22:34;;;;;;;13.15;6.13;;;;;;;;;;5033479;28;20024;-74
2022/10/09 07:24:59;;;;;;;13.80;6.68;;;;;;;;;;5021945;28;20554;-74
2022/10/09 07:27:25;;;;;;;10.73;6.45;;;;;;;;;;5010214;28;20842;-74
2022/10/09 07:29:50;;;;;;;11.57;6.38;;;;;;;;;;5029057;28;20028;-73
2022/10/09 07:32:15;;;;;;;18.10;10.95;;;;;;;;;;5037096;28;20081;-74
2022/10/09 07:34:40;;;;;;;17.95;9.32;;;;;;;;;;5016801;28;20098;-73
2022/10/09 07:37:05;;;;;;;17.65;12.48;;;;;;;;;;5018063;28;20036;-74
2022/10/09 07:39:31;;;;;;;18.65;9.68;;;;;;;;;;5017817;28;20024;-74
2022/10/09 07:41:56;;;;;;;20.70;9.38;;;;;;;;;;5016698;28;20857;-74
2022/10/09 07:44:21;;;;;;;16.20;8.77;;;;;;;;;;5030199;28;20280;-75
2022/10/09 07:46:48;;;;;;;12.40;7.65;;;;;;;;;;5036215;28;20048;-74
2022/10/09 07:49:13;;;;;;;10.73;7.22;;;;;;;;;;5019283;28;20025;-75
2022/10/09 07:51:38;;;;;;;15.82;7.90;;;;;;;;;;5015674;28;20803;-75
2022/10/09 07:54:03;;;;;;;20.42;8.38;;;;;;;;;;5016823;28;20782;-74
2022/10/09 07:56:30;;;;;;;12.20;7.30;;;;;;;;;;5007768;28;20027;-75
2022/10/09 07:58:56;;;;;;;16.92;7.63;;;;;;;;;;5037709;28;20050;-75
2022/10/09 08:01:22;;;;;;;14.63;7.60;;;;;;;;;;5036168;28;20131;-75
2022/10/09 08:03:48;;;;;;;18.13;6.90;;;;;;;;;;5062665;28;20020;-75
2022/10/09 08:06:13;;;;;;;17.02;6.72;;;;;;;;;;5037556;28;20039;-75
2022/10/09 08:08:38;;;;;;;15.10;6.28;;;;;;;;;;4997483;28;20911;-75
2022/10/09 08:11:11;;;;;;;9.75;6.05;;;;;;;;;;4997797;28;20880;-74
2022/10/09 08:13:37;;;;;;;16.05;6.32;;;;;;;;;;5046152;28;20039;-75
2022/10/09 08:16:02;;;;;;;12.40;5.85;;;;;;;;;;5015301;28;20020;-75
2022/10/09 08:18:27;;;;;;;10.25;4.53;;;;;;;;;;5016380;28;20024;-75
2022/10/09 08:20:59;;;;;;;12.60;5.35;;;;;;;;;;5017193;28;20865;-75
2022/10/09 08:23:25;;;;;;;12.48;5.22;;;;;;;;;;5035780;28;20036;-75
2022/10/09 08:25:50;;;;;;;14.15;5.10;;;;;;;;;;5014013;28;20029;-74
2022/10/09 08:28:15;;;;;;;7.43;4.88;;;;;;;;;;5018788;28;20928;-74
2022/10/09 08:30:41;;;;;;;11.60;4.55;;;;;;;;;;5014859;28;20029;-75
2022/10/09 08:33:06;;;;;;;14.57;4.82;;;;;;;;;;5014736;28;20020;-74
2022/10/09 08:35:31;;;;;;;7.32;4.20;;;;;;;;;;5018206;28;20023;-74
2022/10/09 08:37:56;;;;;;;14.63;4.80;;;;;;;;;;5033324;28;20909;-75
2022/10/09 08:40:28;;;;;;;11.17;4.07;;;;;;;;;;5010101;28;20916;-74
2022/10/09 08:42:59;;;;;;;14.57;4.38;;;;;;;;;;5023152;28;20271;-74
2022/10/09 08:45:24;;;;;;;18.38;4.47;;;;;;;;;;4996365;28;20017;-74
2022/10/09 08:47:55;;;;;;;10.35;3.85;;;;;;;;;;5016090;28;20553;-74
2022/10/09 08:50:23;;;;;;;12.00;4.38;;;;;;;;;;5017061;28;20012;-74
2022/10/09 08:52:54;;;;;;;8.55;4.53;;;;;;;;;;5031114;28;20016;-74
2022/10/09 08:55:24;;;;;;;6.72;4.38;;;;;;;;;;5044635;28;20428;-75
2022/10/09 08:57:50;;;;;;;14.63;5.68;;;;;;;;;;5011548;28;20860;-75
2022/10/09 09:00:17;;;;;;;12.82;5.43;;;;;;;;;;5040166;28;20024;-74
2022/10/09 09:03:06;;;;;;;10.20;6.38;;;;;;;;;;5043066;28;20025;-75
2022/10/09 09:05:34;;;;;;;8.43;4.80;;;;;;;;;;5037064;28;20100;-74
2022/10/09 09:08:18;;;;;;;14.55;6.45;;;;;;;;;;5016036;28;20030;-74
2022/10/09 09:10:52;;;;;;;11.30;5.38;;;;;;;;;;5035406;28;20025;-75
2022/10/09 09:13:18;;;;;;;11.48;4.30;;;;;;;;;;5038867;28;20133;-74
2022/10/09 09:15:47;;;;;;;7.90;4.77;;;;;;;;;;5025837;28;20860;-74
2022/10/09 09:18:28;;;;;;;10.57;4.65;;;;;;;;;;5019817;28;20281;-74
2022/10/09 09:20:54;;;;;;;11.63;4.80;;;;;;;;;;5022059;28;20024;-75
2022/10/09 09:23:27;;;;;;;11.50;4.10;;;;;;;;;;5025592;28;20028;-75
2022/10/09 09:25:52;;;;;;;7.85;4.05;;;;;;;;;;5023004;28;20122;-75
2022/10/09 09:28:37;;;;;;;9.07;3.65;;;;;;;;;;5050145;28;20338;-75
2022/10/09 09:31:03;;;;;;;14.63;4.15;;;;;;;;;;5038153;28;20036;-74
2022/10/09 09:33:34;;;;;;;11.20;3.60;;;;;;;;;;5019628;28;20073;-74
2022/10/09 09:36:18;;;;;;;6.97;3.50;;;;;;;;;;5021568;28;20885;-75
2022/10/09 09:38:43;;;;;;;9.10;3.08;;;;;;;;;;5047303;28;20028;-75
2022/10/09 09:41:09;;;;;;;11.93;4.00;;;;;;;;;;5028130;28;20081;-76
2022/10/09 09:43:34;;;;;;;6.47;3.00;;;;;;;;;;5024269;28;20086;-77
2022/10/09 09:46:00;;;;;;;7.68;3.40;;;;;;;;;;5018992;28;20023;-77
2022/10/09 09:48:28;;;;;;;8.15;3.50;;;;;;;;;;5023068;28;20033;-76
2022/10/09 09:50:54;;;;;;;9.05;3.65;;;;;;;;;;5051080;28;20081;-76
2022/10/09 09:53:19;;;;;;;12.18;3.80;;;;;;;;;;5013740;28;20075;-76
2022/10/09 09:55:44;;;;;;;6.00;2.77;;;;;;;;;;5017170;28;20131;-77
2022/10/09 09:58:16;;;;;;;7.88;3.38;;;;;;;;;;5014741;28;20024;-76
2022/10/09 10:00:51;;;;;;;5.38;3.10;;;;;;;;;;5024445;28;20012;-76
2022/10/09 10:03:17;;;;;;;7.40;3.20;;;;;;;;;;5045411;28;20028;-73
2022/10/09 10:05:43;;;;;;;7.57;2.95;;;;;;;;;;5029057;28;20039;-73
2022/10/09 10:08:27;;;;;;;5.75;2.65;;;;;;;;;;5050028;28;20029;-69
2022/10/09 10:10:54;;;;;;;9.70;3.13;;;;;;;;;;5048393;28;20024;-71
2022/10/09 10:13:21;;;;;;;8.88;3.47;;;;;;;;;;5023209;28;20084;-70
2022/10/09 10:15:51;;;;;;;10.43;3.28;;;;;;;;;;5051704;28;20021;-68
2022/10/09 10:18:17;;;;;;;11.43;3.80;;;;;;;;;;5042446;28;20028;-72
2022/10/09 10:20:47;;;;;;;6.97;3.08;;;;;;;;;;5042155;28;20125;-68
2022/10/09 10:23:21;;;;;;;5.22;2.30;;;;;;;;;;5039653;28;20020;-70
2022/10/09 10:25:46;;;;;;;7.95;3.15;;;;;;;;;;5043326;28;20059;-71
2022/10/09 10:28:14;;;;;;;4.78;3.15;;;;;;;;;;5042587;28;20775;-72
2022/10/09 10:30:40;;;;;;;7.53;3.17;;;;;;;;;;5040410;28;20135;-69
2022/10/09 10:33:20;;;;;;;6.63;3.00;;;;;;;;;;5023328;28;20028;-69
2022/10/09 10:35:48;;;;;;;9.40;2.75;;;;;;;;;;5044264;28;20024;-69
2022/10/09 10:38:31;;;;;;;7.15;3.40;;;;;;;;;;5044885;28;20917;-71
2022/10/09 10:41:16;;;;;;;5.13;2.60;;;;;;;;;;5038794;28;20718;-69
2022/10/09 10:43:47;;;;;;;4.55;2.65;;;;;;;;;;5032772;28;21190;-69
2022/10/09 10:46:24;;;;;;;8.23;2.33;;;;;;;;;;5043957;28;20037;-69
2022/10/09 10:48:50;;;;;;;5.82;2.45;;;;;;;;;;5045417;28;20024;-71
2022/10/09 10:51:34;;;;;;;6.78;2.03;;;;;;;;;;5041198;28;20032;-70
2022/10/09 10:54:02;;;;;;;5.35;2.00;;;;;;;;;;5037581;28;20028;-72
2022/10/09 10:56:30;;;;;;;5.13;1.80;;;;;;;;;;5037139;28;20036;-71
2022/10/09 10:59:05;;;;;;;6.53;2.40;;;;;;;;;;5019105;28;20827;-69
2022/10/09 11:01:49;;;;;;;5.38;2.42;;;;;;;;;;5039593;28;20031;-76
2022/10/09 11:04:41;;;;;;;9.82;2.45;;;;;;;;;;5051504;28;20020;-70
2022/10/09 11:07:21;;;;;;;5.70;2.53;;;;;;;;;;5007385;28;20051;-71
2022/10/09 11:09:55;;;;;;;3.63;1.90;;;;;;;;;;5032588;28;20031;-74
2022/10/09 11:12:39;;;;;;;6.22;2.03;;;;;;;;;;5016169;28;20025;-78
2022/10/09 11:15:04;;;;;;;4.63;1.92;;;;;;;;;;5029689;28;20012;-77
2022/10/09 11:17:29;;;;;;;4.90;2.60;;;;;;;;;;5012861;28;20931;-78
2022/10/09 11:20:02;;;;;;;3.37;1.30;;;;;;;;;;5020408;28;20024;-77
2022/10/09 11:22:33;;;;;;;4.57;2.03;;;;;;;;;;5033871;28;20650;-78
2022/10/09 11:25:07;;;;;;;7.20;1.70;;;;;;;;;;5031598;28;20020;-78
2022/10/09 11:27:51;;;;;;;7.35;2.10;;;;;;;;;;5049600;28;20862;-79
2022/10/09 11:30:17;;;;;;;6.17;1.63;;;;;;;;;;5018989;28;20052;-79
2022/10/09 11:32:49;;;;;;;6.25;1.85;;;;;;;;;;5013719;28;20389;-80
2022/10/09 11:35:19;;;;;;;3.85;1.65;;;;;;;;;;5018478;28;20028;-79
2022/10/09 11:37:46;;;;;;;4.50;2.05;;;;;;;;;;5028122;28;20029;-78
2022/10/09 11:40:18;;;;;;;10.40;2.38;;;;;;;;;;5039782;28;20026;-78
2022/10/09 11:42:51;;;;;;;5.15;1.88;;;;;;;;;;5021619;28;20115;-77
2022/10/09 11:45:19;;;;;;;15.15;2.55;;;;;;;;;;5009853;28;20029;-76
2022/10/09 11:47:48;;;;;;;18.88;2.72;;;;;;;;;;5022782;28;20608;-77
2022/10/09 11:50:22;;;;;;;4.95;1.90;;;;;;;;;;5022378;28;20977;-78
2022/10/09 11:52:59;;;;;;;6.57;2.78;;;;;;;;;;5021697;28;20162;-75
2022/10/09 11:55:26;;;;;;;7.07;2.67;;;;;;;;;;5032802;28;20027;-75
2022/10/09 11:57:51;;;;;;;10.05;2.80;;;;;;;;;;5013758;28;20051;-77
2022/10/09 12:00:27;;;;;;;6.65;2.08;;;;;;;;;;5017882;28;20054;-77
2022/10/09 12:02:58;;;;;;;10.25;2.40;;;;;;;;;;5022443;28;20025;-75
2022/10/09 12:05:53;;;;;;;9.13;2.42;;;;;;;;;;5014252;28;20017;-78
2022/10/09 12:08:25;;;;;;;11.15;2.28;;;;;;;;;;5004077;28;20079;-77
2022/10/09 12:10:58;;;;;;;6.13;2.40;;;;;;;;;;5018634;28;20104;-74
2022/10/09 12:13:27;;;;;;;8.80;2.67;;;;;;;;;;5014624;28;20033;-76
2022/10/09 12:15:54;;;;;;;6.32;2.50;;;;;;;;;;5017631;28;20020;-77
2022/10/09 12:18:20;;;;;;;12.00;2.65;;;;;;;;;;5030350;28;20035;-77
2022/10/09 12:20:47;;;;;;;7.17;3.00;;;;;;;;;;5024669;28;20020;-77
2022/10/09 12:23:17;;;;;;;4.72;1.95;;;;;;;;;;5052218;28;20028;-75
2022/10/09 12:25:43;;;;;;;4.53;2.20;;;;;;;;;;5017139;28;20042;-76
2022/10/09 12:28:27;;;;;;;9.60;2.50;;;;;;;;;;5036525;28;20086;-77
2022/10/09 12:30:54;;;;;;;9.68;2.53;;;;;;;;;;5049815;28;20163;-77
2022/10/09 12:33:29;;;;;;;3.95;2.15;;;;;;;;;;5016026;28;20021;-77
2022/10/09 12:36:03;;;;;;;5.97;2.55;;;;;;;;;;5024284;28;20050;-78
2022/10/09 12:38:30;;;;;;;;;;;;;;;;;;5059613;28;20024;-77
2022/10/09 12:40:58;;;;;;;5.38;2.30;;;;;;;;;;5043955;28;19908;-77
2022/10/09 12:43:23;;;;;;;7.65;2.92;;;;;;;;;;5027193;28;20021;-76
2022/10/09 12:45:49;;;;;;;4.97;2.33;;;;;;;;;;5015187;28;20028;-74
2022/10/09 12:48:20;;;;;;;6.20;2.83;;;;;;;;;;5017052;28;20029;-74
2022/10/09 12:50:45;;;;;;;6.00;2.53;;;;;;;;;;5024095;28;20028;-75
2022/10/09 12:53:13;;;;;;;11.63;3.08;;;;;;;;;;5018043;28;20078;-73
2022/10/09 12:55:43;;;;;;;5.32;2.55;;;;;;;;;;5044944;28;20047;-75
2022/10/09 12:58:17;;;;;;;5.90;2.28;;;;;;;;;;5039775;28;20033;-74
2022/10/09 13:00:44;;;;;;;4.93;2.40;;;;;;;;;;5072987;28;20024;-75
2022/10/09 13:03:22;;;;;;;6.63;2.17;;;;;;;;;;5061280;28;21107;-75
2022/10/09 13:05:47;;;;;;;12.82;2.83;;;;;;;;;;5052938;28;20808;-75
2022/10/09 13:08:26;;;;;;;9.52;2.28;;;;;;;;;;5049850;28;20043;-75
2022/10/09 13:10:53;;;;;;;7.07;2.03;;;;;;;;;;5032202;28;20047;-73
2022/10/09 13:13:25;;;;;;;6.25;2.90;;;;;;;;;;5040331;28;20086;-74
2022/10/09 13:16:00;;;;;;;7.32;3.15;;;;;;;;;;5046139;28;20028;-74
2022/10/09 13:18:25;;;;;;;5.82;2.42;;;;;;;;;;5063490;28;20898;-75
2022/10/09 13:20:58;;;;;;;5.57;2.17;;;;;;;;;;5047847;28;20029;-74
2022/10/09 13:23:32;;;;;;;5.22;2.15;;;;;;;;;;5039335;28;20071;-76
2022/10/09 13:25:57;;;;;;;8.93;2.22;;;;;;;;;;5021997;28;20032;-74
2022/10/09 13:28:22;;;;;;;4.22;2.25;;;;;;;;;;5028438;28;20960;-76
2022/10/09 13:30:48;;;;;;;15.30;2.65;;;;;;;;;;5024561;28;20029;-76
2022/10/09 13:33:14;;;;;;;5.85;2.33;;;;;;;;;;5024547;28;20826;-76
2022/10/09 13:35:39;;;;;;;18.60;2.20;;;;;;;;;;5053695;28;20020;-75
2022/10/09 13:38:04;;;;;;;14.25;3.15;;;;;;;;;;5024777;28;20031;-75
2022/10/09 13:40:30;;;;;;;6.23;2.40;;;;;;;;;;5018736;28;20908;-76
2022/10/09 13:42:59;;;;;;;9.38;2.55;;;;;;;;;;5024774;28;21162;-77
2022/10/09 13:45:24;;;;;;;10.02;2.60;;;;;;;;;;5017696;28;20318;-76
2022/10/09 13:47:49;;;;;;;7.20;2.08;;;;;;;;;;5023523;28;21064;-75
2022/10/09 13:50:16;;;;;;;9.33;2.50;;;;;;;;;;5037830;28;20081;-75
2022/10/09 13:52:41;;;;;;;4.10;1.75;;;;;;;;;;5036207;28;20272;-75
2022/10/09 13:55:07;;;;;;;6.38;2.22;;;;;;;;;;5033767;28;20024;-77
2022/10/09 13:57:32;;;;;;;7.38;2.00;;;;;;;;;;5013832;28;20024;-76
2022/10/09 13:59:58;;;;;;;5.17;2.00;;;;;;;;;;5013945;28;20063;-76
2022/10/09 14:02:24;;;;;;;4.80;1.98;;;;;;;;;;5033021;28;20275;-76
2022/10/09 14:04:49;;;;;;;14.27;2.87;;;;;;;;;;5015107;28;20047;-75
2022/10/09 14:07:14;;;;;;;18.37;3.70;;;;;;;;;;5015149;28;21136;-74
2022/10/09 14:09:39;;;;;;;6.00;2.20;;;;;;;;;;5034605;28;20760;-73
2022/10/09 14:12:05;;;;;;;11.83;2.67;;;;;;;;;;5015472;28;20067;-73
2022/10/09 14:14:30;;;;;;;6.80;2.03;;;;;;;;;;5013537;28;20282;-76
2022/10/09 14:16:56;;;;;;;6.28;2.67;;;;;;;;;;5034748;28;20265;-71
2022/10/09 14:19:26;;;;;;;5.25;2.00;;;;;;;;;;5032618;28;20074;-75
2022/10/09 14:21:51;;;;;;;18.40;3.15;;;;;;;;;;5014880;28;20054;-74
2022/10/09 14:24:18;;;;;;;7.50;2.28;;;;;;;;;;5015673;28;20052;-75
2022/10/09 14:26:43;;;;;;;14.32;2.80;;;;;;;;;;5017764;28;20963;-75
2022/10/09 14:29:09;;;;;;;9.97;2.10;;;;;;;;;;5013002;28;20017;-75
2022/10/09 14:31:34;;;;;;;6.63;2.55;;;;;;;;;;5015610;28;20267;-70
2022/10/09 14:33:59;;;;;;;5.25;2.30;;;;;;;;;;5014148;28;20151;-69
2022/10/09 14:36:25;;;;;;;6.47;1.83;;;;;;;;;;5032080;28;20028;-68
2022/10/09 14:38:50;;;;;;;4.35;1.88;;;;;;;;;;5033675;28;20028;-67